sensor_id;sensor_type;location;lat;lon;timestamp;temperature;humidity
12853;DHT22;6495;51.808;7.478;2023-04-24T00:00:56;12.00;99.90
12853;DHT22;6495;51.808;7.478;2023-04-24T00:04:19;12.00;99.90
12853;DHT22;6495;51.808;7.478;2023-04-24T00:07:16;12.00;99.90
12853;DHT22;6495;51.808;7.478;2023-04-24T00:10:22;12.00;99.90
12853;DHT22;6495;51.808;7.478;2023-04-24T00:13:11;12.00;99.90
12853;DHT22;6495;51.808;7.478;2023-04-24T00:16:00;12.00;99.90
12853;DHT22;6495;51.808;7.478;2023-04-24T00:18:57;12.00;99.90
12853;DHT22;6495;51.808;7.478;2023-04-24T00:21:53;12.00;99.90
12853;DHT22;6495;51.808;7.478;2023-04-24T00:24:49;12.00;99.90
12853;DHT22;6495;51.808;7.478;2023-04-24T00:27:42;11.90;99.90
12853;DHT22;6495;51.808;7.478;2023-04-24T00:30:31;11.90;99.90
12853;DHT22;6495;51.808;7.478;2023-04-24T00:33:25;11.90;99.90
12853;DHT22;6495;51.808;7.478;2023-04-24T00:36:13;11.90;99.90
12853;DHT22;6495;51.808;7.478;2023-04-24T00:39:01;11.90;99.90
12853;DHT22;6495;51.808;7.478;2023-04-24T00:41:59;11.90;99.90
12853;DHT22;6495;51.808;7.478;2023-04-24T00:44:53;11.90;99.90
12853;DHT22;6495;51.808;7.478;2023-04-24T00:47:50;11.90;99.90
12853;DHT22;6495;51.808;7.478;2023-04-24T00:50:40;11.90;99.90
12853;DHT22;6495;51.808;7.478;2023-04-24T00:53:30;11.80;99.90
12853;DHT22;6495;51.808;7.478;2023-04-24T00:56:18;11.80;99.90
12853;DHT22;6495;51.808;7.478;2023-04-24T00:59:09;11.80;99.90
12853;DHT22;6495;51.808;7.478;2023-04-24T01:01:59;11.80;99.90
12853;DHT22;6495;51.808;7.478;2023-04-24T01:04:48;11.80;99.90
12853;DHT22;6495;51.808;7.478;2023-04-24T01:07:38;11.80;99.90
12853;DHT22;6495;51.808;7.478;2023-04-24T01:10:31;11.80;99.90
12853;DHT22;6495;51.808;7.478;2023-04-24T01:13:21;11.80;99.90
12853;DHT22;6495;51.808;7.478;2023-04-24T01:16:14;11.80;99.90
12853;DHT22;6495;51.808;7.478;2023-04-24T01:19:11;11.80;99.90
12853;DHT22;6495;51.808;7.478;2023-04-24T01:22:02;11.70;99.90
12853;DHT22;6495;51.808;7.478;2023-04-24T01:25:07;11.70;99.90
12853;DHT22;6495;51.808;7.478;2023-04-24T01:27:59;11.70;99.90
12853;DHT22;6495;51.808;7.478;2023-04-24T01:30:54;11.70;99.90
12853;DHT22;6495;51.808;7.478;2023-04-24T01:33:44;11.70;99.90
12853;DHT22;6495;51.808;7.478;2023-04-24T01:36:37;11.70;99.90
12853;DHT22;6495;51.808;7.478;2023-04-24T01:39:28;11.70;99.90
12853;DHT22;6495;51.808;7.478;2023-04-24T01:42:22;11.70;99.90
12853;DHT22;6495;51.808;7.478;2023-04-24T01:45:12;11.70;99.90
12853;DHT22;6495;51.808;7.478;2023-04-24T01:48:01;11.70;99.90
12853;DHT22;6495;51.808;7.478;2023-04-24T01:50:53;11.70;99.90
12853;DHT22;6495;51.808;7.478;2023-04-24T01:53:59;11.70;99.90
12853;DHT22;6495;51.808;7.478;2023-04-24T01:56:52;11.70;99.90
12853;DHT22;6495;51.808;7.478;2023-04-24T01:59:45;11.70;99.90
12853;DHT22;6495;51.808;7.478;2023-04-24T02:02:41;11.70;99.90
12853;DHT22;6495;51.808;7.478;2023-04-24T02:05:34;11.70;99.90
12853;DHT22;6495;51.808;7.478;2023-04-24T02:08:23;11.60;99.90
12853;DHT22;6495;51.808;7.478;2023-04-24T02:11:11;11.60;99.90
12853;DHT22;6495;51.808;7.478;2023-04-24T02:14:01;11.50;99.90
12853;DHT22;6495;51.808;7.478;2023-04-24T02:16:49;11.50;99.90
12853;DHT22;6495;51.808;7.478;2023-04-24T02:19:38;11.50;99.90
12853;DHT22;6495;51.808;7.478;2023-04-24T02:22:27;11.40;99.90
12853;DHT22;6495;51.808;7.478;2023-04-24T02:25:15;11.40;99.90
12853;DHT22;6495;51.808;7.478;2023-04-24T02:28:04;11.30;99.90
12853;DHT22;6495;51.808;7.478;2023-04-24T02:30:55;11.30;99.90
12853;DHT22;6495;51.808;7.478;2023-04-24T02:33:43;11.30;99.90
12853;DHT22;6495;51.808;7.478;2023-04-24T02:36:32;11.20;99.90
12853;DHT22;6495;51.808;7.478;2023-04-24T02:39:20;11.20;99.90
12853;DHT22;6495;51.808;7.478;2023-04-24T02:42:08;11.20;99.90
12853;DHT22;6495;51.808;7.478;2023-04-24T02:44:57;11.10;99.90
12853;DHT22;6495;51.808;7.478;2023-04-24T02:47:47;11.10;99.90
12853;DHT22;6495;51.808;7.478;2023-04-24T02:50:46;11.10;99.90
12853;DHT22;6495;51.808;7.478;2023-04-24T02:53:35;11.10;99.90
12853;DHT22;6495;51.808;7.478;2023-04-24T02:56:23;11.10;99.90
12853;DHT22;6495;51.808;7.478;2023-04-24T02:59:12;11.10;99.90
12853;DHT22;6495;51.808;7.478;2023-04-24T03:02:01;11.10;99.90
12853;DHT22;6495;51.808;7.478;2023-04-24T03:04:51;11.10;99.90
12853;DHT22;6495;51.808;7.478;2023-04-24T03:07:40;11.00;99.90
12853;DHT22;6495;51.808;7.478;2023-04-24T03:10:28;11.00;99.90
12853;DHT22;6495;51.808;7.478;2023-04-24T03:13:17;11.00;99.90
12853;DHT22;6495;51.808;7.478;2023-04-24T03:16:05;11.00;99.90
12853;DHT22;6495;51.808;7.478;2023-04-24T03:18:54;10.90;99.90
12853;DHT22;6495;51.808;7.478;2023-04-24T03:21:46;10.90;99.90
12853;DHT22;6495;51.808;7.478;2023-04-24T03:24:35;10.90;99.90
12853;DHT22;6495;51.808;7.478;2023-04-24T03:27:24;10.90;99.90
12853;DHT22;6495;51.808;7.478;2023-04-24T03:30:15;10.80;99.90
12853;DHT22;6495;51.808;7.478;2023-04-24T03:33:09;10.80;99.90
12853;DHT22;6495;51.808;7.478;2023-04-24T03:36:08;10.80;99.90
12853;DHT22;6495;51.808;7.478;2023-04-24T03:39:01;10.80;99.90
12853;DHT22;6495;51.808;7.478;2023-04-24T03:41:53;10.80;99.90
12853;DHT22;6495;51.808;7.478;2023-04-24T03:44:55;10.70;99.90
12853;DHT22;6495;51.808;7.478;2023-04-24T03:47:49;10.70;99.90
12853;DHT22;6495;51.808;7.478;2023-04-24T03:50:38;10.70;99.90
12853;DHT22;6495;51.808;7.478;2023-04-24T03:53:30;10.70;99.90
12853;DHT22;6495;51.808;7.478;2023-04-24T03:56:21;10.70;99.90
12853;DHT22;6495;51.808;7.478;2023-04-24T03:59:10;10.60;99.90
12853;DHT22;6495;51.808;7.478;2023-04-24T04:01:59;10.60;99.90
12853;DHT22;6495;51.808;7.478;2023-04-24T04:04:48;10.50;99.90
12853;DHT22;6495;51.808;7.478;2023-04-24T04:07:37;10.50;99.90
12853;DHT22;6495;51.808;7.478;2023-04-24T04:10:26;10.50;99.90
12853;DHT22;6495;51.808;7.478;2023-04-24T04:13:16;10.50;99.90
12853;DHT22;6495;51.808;7.478;2023-04-24T04:16:04;10.50;99.90
12853;DHT22;6495;51.808;7.478;2023-04-24T04:18:53;10.50;99.90
12853;DHT22;6495;51.808;7.478;2023-04-24T04:21:42;10.50;99.90
12853;DHT22;6495;51.808;7.478;2023-04-24T04:24:45;10.40;99.90
12853;DHT22;6495;51.808;7.478;2023-04-24T04:27:35;10.40;99.90
12853;DHT22;6495;51.808;7.478;2023-04-24T04:30:30;10.50;99.90
12853;DHT22;6495;51.808;7.478;2023-04-24T04:33:23;10.40;99.90
12853;DHT22;6495;51.808;7.478;2023-04-24T04:36:13;10.50;99.90
12853;DHT22;6495;51.808;7.478;2023-04-24T04:39:05;10.40;99.90
12853;DHT22;6495;51.808;7.478;2023-04-24T04:42:15;10.50;99.90
12853;DHT22;6495;51.808;7.478;2023-04-24T04:45:14;10.40;99.90
12853;DHT22;6495;51.808;7.478;2023-04-24T04:48:28;10.40;99.90
12853;DHT22;6495;51.808;7.478;2023-04-24T04:51:20;10.40;99.90
12853;DHT22;6495;51.808;7.478;2023-04-24T04:54:14;10.50;99.90
12853;DHT22;6495;51.808;7.478;2023-04-24T04:57:03;10.40;99.90
12853;DHT22;6495;51.808;7.478;2023-04-24T04:59:52;10.50;99.90
12853;DHT22;6495;51.808;7.478;2023-04-24T05:02:53;10.50;99.90
12853;DHT22;6495;51.808;7.478;2023-04-24T05:06:05;10.50;99.90
12853;DHT22;6495;51.808;7.478;2023-04-24T05:08:57;10.50;99.90
12853;DHT22;6495;51.808;7.478;2023-04-24T05:11:59;10.50;99.90
12853;DHT22;6495;51.808;7.478;2023-04-24T05:14:53;10.50;99.90
12853;DHT22;6495;51.808;7.478;2023-04-24T05:17:41;10.50;99.90
12853;DHT22;6495;51.808;7.478;2023-04-24T05:20:31;10.50;99.90
12853;DHT22;6495;51.808;7.478;2023-04-24T05:23:21;10.50;99.90
12853;DHT22;6495;51.808;7.478;2023-04-24T05:26:13;10.50;99.90
12853;DHT22;6495;51.808;7.478;2023-04-24T05:29:02;10.50;99.90
12853;DHT22;6495;51.808;7.478;2023-04-24T05:31:50;10.50;99.90
12853;DHT22;6495;51.808;7.478;2023-04-24T05:34:40;10.50;99.90
12853;DHT22;6495;51.808;7.478;2023-04-24T05:37:28;10.50;99.90
12853;DHT22;6495;51.808;7.478;2023-04-24T05:40:18;10.50;99.90
12853;DHT22;6495;51.808;7.478;2023-04-24T05:43:08;10.50;99.90
12853;DHT22;6495;51.808;7.478;2023-04-24T05:45:56;10.50;99.90
12853;DHT22;6495;51.808;7.478;2023-04-24T05:48:45;10.50;99.90
12853;DHT22;6495;51.808;7.478;2023-04-24T05:51:33;10.50;99.90
12853;DHT22;6495;51.808;7.478;2023-04-24T05:54:22;10.50;99.90
12853;DHT22;6495;51.808;7.478;2023-04-24T05:57:13;10.50;99.90
12853;DHT22;6495;51.808;7.478;2023-04-24T06:00:12;10.50;99.90
12853;DHT22;6495;51.808;7.478;2023-04-24T06:03:09;10.50;99.90
12853;DHT22;6495;51.808;7.478;2023-04-24T06:06:08;10.50;99.90
12853;DHT22;6495;51.808;7.478;2023-04-24T06:08:57;10.50;99.90
12853;DHT22;6495;51.808;7.478;2023-04-24T06:11:46;10.50;99.90
12853;DHT22;6495;51.808;7.478;2023-04-24T06:14:36;10.50;99.90
12853;DHT22;6495;51.808;7.478;2023-04-24T06:17:38;10.50;99.90
12853;DHT22;6495;51.808;7.478;2023-04-24T06:20:27;10.50;99.90
12853;DHT22;6495;51.808;7.478;2023-04-24T06:23:16;10.50;99.90
12853;DHT22;6495;51.808;7.478;2023-04-24T06:26:04;10.50;99.90
12853;DHT22;6495;51.808;7.478;2023-04-24T06:28:53;10.50;99.90
12853;DHT22;6495;51.808;7.478;2023-04-24T06:31:43;10.50;99.90
12853;DHT22;6495;51.808;7.478;2023-04-24T06:34:32;10.50;99.90
12853;DHT22;6495;51.808;7.478;2023-04-24T06:37:21;10.50;99.90
12853;DHT22;6495;51.808;7.478;2023-04-24T06:40:10;10.50;99.90
12853;DHT22;6495;51.808;7.478;2023-04-24T06:42:58;10.40;99.90
12853;DHT22;6495;51.808;7.478;2023-04-24T06:45:49;10.40;99.90
12853;DHT22;6495;51.808;7.478;2023-04-24T06:48:39;10.40;99.90
12853;DHT22;6495;51.808;7.478;2023-04-24T06:51:28;10.40;99.90
12853;DHT22;6495;51.808;7.478;2023-04-24T06:54:17;10.30;99.90
12853;DHT22;6495;51.808;7.478;2023-04-24T06:57:05;10.30;99.90
12853;DHT22;6495;51.808;7.478;2023-04-24T06:59:54;10.30;99.90
12853;DHT22;6495;51.808;7.478;2023-04-24T07:02:42;10.30;99.90
12853;DHT22;6495;51.808;7.478;2023-04-24T07:05:32;10.30;99.90
12853;DHT22;6495;51.808;7.478;2023-04-24T07:08:22;10.30;99.90
12853;DHT22;6495;51.808;7.478;2023-04-24T07:11:11;10.30;99.90
12853;DHT22;6495;51.808;7.478;2023-04-24T07:13:59;10.30;99.90
12853;DHT22;6495;51.808;7.478;2023-04-24T07:16:51;10.30;99.90
12853;DHT22;6495;51.808;7.478;2023-04-24T07:19:39;10.30;99.90
12853;DHT22;6495;51.808;7.478;2023-04-24T07:22:30;10.30;99.90
12853;DHT22;6495;51.808;7.478;2023-04-24T07:25:18;10.30;99.90
12853;DHT22;6495;51.808;7.478;2023-04-24T07:28:11;10.30;99.90
12853;DHT22;6495;51.808;7.478;2023-04-24T07:31:00;10.30;99.90
12853;DHT22;6495;51.808;7.478;2023-04-24T07:33:48;10.30;99.90
12853;DHT22;6495;51.808;7.478;2023-04-24T07:36:37;10.30;99.90
12853;DHT22;6495;51.808;7.478;2023-04-24T07:39:27;10.30;99.90
12853;DHT22;6495;51.808;7.478;2023-04-24T07:42:16;10.30;99.90
12853;DHT22;6495;51.808;7.478;2023-04-24T07:45:06;10.30;99.90
12853;DHT22;6495;51.808;7.478;2023-04-24T07:47:56;10.30;99.90
12853;DHT22;6495;51.808;7.478;2023-04-24T07:50:45;10.30;99.90
12853;DHT22;6495;51.808;7.478;2023-04-24T07:53:33;10.30;99.90
12853;DHT22;6495;51.808;7.478;2023-04-24T07:56:23;10.30;99.90
12853;DHT22;6495;51.808;7.478;2023-04-24T07:59:14;10.30;99.90
12853;DHT22;6495;51.808;7.478;2023-04-24T08:02:02;10.30;99.90
12853;DHT22;6495;51.808;7.478;2023-04-24T08:04:51;10.30;99.90
12853;DHT22;6495;51.808;7.478;2023-04-24T08:07:40;10.30;99.90
12853;DHT22;6495;51.808;7.478;2023-04-24T08:10:30;10.30;99.90
12853;DHT22;6495;51.808;7.478;2023-04-24T08:13:28;10.30;99.90
12853;DHT22;6495;51.808;7.478;2023-04-24T08:16:17;10.30;99.90
12853;DHT22;6495;51.808;7.478;2023-04-24T08:19:05;10.30;99.90
12853;DHT22;6495;51.808;7.478;2023-04-24T08:21:54;10.30;99.90
12853;DHT22;6495;51.808;7.478;2023-04-24T08:24:45;10.30;99.90
12853;DHT22;6495;51.808;7.478;2023-04-24T08:27:33;10.30;99.90
12853;DHT22;6495;51.808;7.478;2023-04-24T08:30:25;10.30;99.90
12853;DHT22;6495;51.808;7.478;2023-04-24T08:33:13;10.30;99.90
12853;DHT22;6495;51.808;7.478;2023-04-24T08:36:02;10.30;99.90
12853;DHT22;6495;51.808;7.478;2023-04-24T08:38:51;10.30;99.90
12853;DHT22;6495;51.808;7.478;2023-04-24T08:41:41;10.30;99.90
12853;DHT22;6495;51.808;7.478;2023-04-24T08:44:32;10.30;99.90
12853;DHT22;6495;51.808;7.478;2023-04-24T08:47:23;10.30;99.90
12853;DHT22;6495;51.808;7.478;2023-04-24T08:50:12;10.30;99.90
12853;DHT22;6495;51.808;7.478;2023-04-24T08:53:01;10.30;99.90
12853;DHT22;6495;51.808;7.478;2023-04-24T08:55:51;10.30;99.90
12853;DHT22;6495;51.808;7.478;2023-04-24T08:58:44;10.30;99.90
12853;DHT22;6495;51.808;7.478;2023-04-24T09:01:33;10.30;99.90
12853;DHT22;6495;51.808;7.478;2023-04-24T09:04:24;10.30;99.90
12853;DHT22;6495;51.808;7.478;2023-04-24T09:07:16;10.40;99.90
12853;DHT22;6495;51.808;7.478;2023-04-24T09:10:07;10.40;99.90
12853;DHT22;6495;51.808;7.478;2023-04-24T09:12:56;10.40;99.90
12853;DHT22;6495;51.808;7.478;2023-04-24T09:15:49;10.40;99.90
12853;DHT22;6495;51.808;7.478;2023-04-24T09:18:52;10.40;99.90
12853;DHT22;6495;51.808;7.478;2023-04-24T09:21:46;10.40;99.90
12853;DHT22;6495;51.808;7.478;2023-04-24T09:24:34;10.40;99.90
12853;DHT22;6495;51.808;7.478;2023-04-24T09:27:48;10.40;99.90
12853;DHT22;6495;51.808;7.478;2023-04-24T09:30:37;10.40;99.90
12853;DHT22;6495;51.808;7.478;2023-04-24T09:33:25;10.40;99.90
12853;DHT22;6495;51.808;7.478;2023-04-24T09:36:17;10.40;99.90
12853;DHT22;6495;51.808;7.478;2023-04-24T09:39:08;10.50;99.90
12853;DHT22;6495;51.808;7.478;2023-04-24T09:42:01;10.50;99.90
12853;DHT22;6495;51.808;7.478;2023-04-24T09:44:55;10.50;99.90
12853;DHT22;6495;51.808;7.478;2023-04-24T09:48:00;10.50;99.90
12853;DHT22;6495;51.808;7.478;2023-04-24T09:50:52;10.50;99.90
12853;DHT22;6495;51.808;7.478;2023-04-24T09:53:45;10.50;99.90
12853;DHT22;6495;51.808;7.478;2023-04-24T09:56:43;10.50;99.90
12853;DHT22;6495;51.808;7.478;2023-04-24T09:59:33;10.50;99.90
12853;DHT22;6495;51.808;7.478;2023-04-24T10:02:26;10.60;99.90
12853;DHT22;6495;51.808;7.478;2023-04-24T10:05:15;10.60;99.90
12853;DHT22;6495;51.808;7.478;2023-04-24T10:08:05;10.60;99.90
12853;DHT22;6495;51.808;7.478;2023-04-24T10:11:20;10.60;99.90
12853;DHT22;6495;51.808;7.478;2023-04-24T10:14:12;10.60;99.90
12853;DHT22;6495;51.808;7.478;2023-04-24T10:17:01;10.60;99.90
12853;DHT22;6495;51.808;7.478;2023-04-24T10:19:51;10.60;99.90
12853;DHT22;6495;51.808;7.478;2023-04-24T10:22:40;10.60;99.90
12853;DHT22;6495;51.808;7.478;2023-04-24T10:25:31;10.60;99.90
12853;DHT22;6495;51.808;7.478;2023-04-24T10:28:21;10.60;99.90
12853;DHT22;6495;51.808;7.478;2023-04-24T10:31:12;10.60;99.90
12853;DHT22;6495;51.808;7.478;2023-04-24T10:34:01;10.50;99.90
12853;DHT22;6495;51.808;7.478;2023-04-24T10:36:51;10.40;99.90
12853;DHT22;6495;51.808;7.478;2023-04-24T10:39:47;10.40;99.90
12853;DHT22;6495;51.808;7.478;2023-04-24T10:42:40;10.40;99.90
12853;DHT22;6495;51.808;7.478;2023-04-24T10:45:29;10.40;99.90
12853;DHT22;6495;51.808;7.478;2023-04-24T10:48:26;10.30;99.90
12853;DHT22;6495;51.808;7.478;2023-04-24T10:51:15;10.30;99.90
12853;DHT22;6495;51.808;7.478;2023-04-24T10:54:22;10.20;99.90
12853;DHT22;6495;51.808;7.478;2023-04-24T10:57:27;10.20;99.90
12853;DHT22;6495;51.808;7.478;2023-04-24T11:00:22;10.10;99.90
12853;DHT22;6495;51.808;7.478;2023-04-24T11:03:26;10.10;99.90
12853;DHT22;6495;51.808;7.478;2023-04-24T11:06:29;10.10;99.90
12853;DHT22;6495;51.808;7.478;2023-04-24T11:09:20;10.10;99.90
12853;DHT22;6495;51.808;7.478;2023-04-24T11:12:10;10.10;99.90
12853;DHT22;6495;51.808;7.478;2023-04-24T11:15:01;10.10;99.90
12853;DHT22;6495;51.808;7.478;2023-04-24T11:17:55;10.10;99.90
12853;DHT22;6495;51.808;7.478;2023-04-24T11:20:46;10.10;99.90
12853;DHT22;6495;51.808;7.478;2023-04-24T11:23:36;10.10;99.90
12853;DHT22;6495;51.808;7.478;2023-04-24T11:26:25;10.10;99.90
12853;DHT22;6495;51.808;7.478;2023-04-24T11:29:20;10.10;99.90
12853;DHT22;6495;51.808;7.478;2023-04-24T11:32:25;10.10;99.90
12853;DHT22;6495;51.808;7.478;2023-04-24T11:35:16;10.00;99.90
12853;DHT22;6495;51.808;7.478;2023-04-24T11:38:10;10.00;99.90
12853;DHT22;6495;51.808;7.478;2023-04-24T11:41:11;9.90;99.90
12853;DHT22;6495;51.808;7.478;2023-04-24T11:44:01;9.90;99.90
12853;DHT22;6495;51.808;7.478;2023-04-24T11:46:51;9.90;99.90
12853;DHT22;6495;51.808;7.478;2023-04-24T11:49:39;9.90;99.90
12853;DHT22;6495;51.808;7.478;2023-04-24T11:52:29;10.00;99.90
12853;DHT22;6495;51.808;7.478;2023-04-24T11:55:28;10.00;99.90
12853;DHT22;6495;51.808;7.478;2023-04-24T11:58:20;10.00;99.90
12853;DHT22;6495;51.808;7.478;2023-04-24T12:01:09;10.00;99.90
12853;DHT22;6495;51.808;7.478;2023-04-24T12:03:59;10.00;99.90
12853;DHT22;6495;51.808;7.478;2023-04-24T12:07:05;10.10;99.90
12853;DHT22;6495;51.808;7.478;2023-04-24T12:10:01;10.10;99.90
12853;DHT22;6495;51.808;7.478;2023-04-24T12:12:58;10.10;99.90
12853;DHT22;6495;51.808;7.478;2023-04-24T12:15:56;10.10;99.90
12853;DHT22;6495;51.808;7.478;2023-04-24T12:18:58;10.10;99.90
12853;DHT22;6495;51.808;7.478;2023-04-24T12:21:59;10.20;99.90
12853;DHT22;6495;51.808;7.478;2023-04-24T12:24:59;10.20;99.90
12853;DHT22;6495;51.808;7.478;2023-04-24T12:27:53;10.20;99.90
12853;DHT22;6495;51.808;7.478;2023-04-24T12:30:47;10.30;99.90
12853;DHT22;6495;51.808;7.478;2023-04-24T12:33:37;10.30;99.90
12853;DHT22;6495;51.808;7.478;2023-04-24T12:36:26;10.30;99.90
12853;DHT22;6495;51.808;7.478;2023-04-24T12:39:15;10.40;99.90
12853;DHT22;6495;51.808;7.478;2023-04-24T12:42:04;10.40;99.90
12853;DHT22;6495;51.808;7.478;2023-04-24T12:44:56;10.40;99.90
12853;DHT22;6495;51.808;7.478;2023-04-24T12:47:48;10.50;99.90
12853;DHT22;6495;51.808;7.478;2023-04-24T12:50:38;10.60;99.90
12853;DHT22;6495;51.808;7.478;2023-04-24T12:53:27;10.60;99.90
12853;DHT22;6495;51.808;7.478;2023-04-24T12:56:18;10.70;99.90
12853;DHT22;6495;51.808;7.478;2023-04-24T12:59:14;10.70;99.90
12853;DHT22;6495;51.808;7.478;2023-04-24T13:02:02;10.70;99.90
12853;DHT22;6495;51.808;7.478;2023-04-24T13:04:53;10.70;99.90
12853;DHT22;6495;51.808;7.478;2023-04-24T13:07:41;10.70;99.90
12853;DHT22;6495;51.808;7.478;2023-04-24T13:10:30;10.70;99.90
12853;DHT22;6495;51.808;7.478;2023-04-24T13:13:18;10.70;99.90
12853;DHT22;6495;51.808;7.478;2023-04-24T13:16:07;10.70;99.90
12853;DHT22;6495;51.808;7.478;2023-04-24T13:18:56;10.70;99.90
12853;DHT22;6495;51.808;7.478;2023-04-24T13:21:45;10.70;99.90
12853;DHT22;6495;51.808;7.478;2023-04-24T13:24:34;10.70;99.90
12853;DHT22;6495;51.808;7.478;2023-04-24T13:27:25;10.70;99.90
12853;DHT22;6495;51.808;7.478;2023-04-24T13:30:14;10.80;99.90
12853;DHT22;6495;51.808;7.478;2023-04-24T13:33:02;10.80;99.90
12853;DHT22;6495;51.808;7.478;2023-04-24T13:35:51;10.80;99.90
12853;DHT22;6495;51.808;7.478;2023-04-24T13:38:41;10.80;99.90
12853;DHT22;6495;51.808;7.478;2023-04-24T13:41:29;10.80;99.90
12853;DHT22;6495;51.808;7.478;2023-04-24T13:44:23;10.80;99.90
12853;DHT22;6495;51.808;7.478;2023-04-24T13:47:12;10.90;99.90
12853;DHT22;6495;51.808;7.478;2023-04-24T13:50:00;10.90;99.90
12853;DHT22;6495;51.808;7.478;2023-04-24T13:52:49;10.80;99.90
12853;DHT22;6495;51.808;7.478;2023-04-24T13:55:39;10.80;99.90
12853;DHT22;6495;51.808;7.478;2023-04-24T13:58:28;10.90;99.90
12853;DHT22;6495;51.808;7.478;2023-04-24T14:01:16;10.90;99.90
12853;DHT22;6495;51.808;7.478;2023-04-24T14:04:26;10.90;99.90
12853;DHT22;6495;51.808;7.478;2023-04-24T14:07:15;10.90;99.90
12853;DHT22;6495;51.808;7.478;2023-04-24T14:10:05;10.90;99.90
12853;DHT22;6495;51.808;7.478;2023-04-24T14:12:55;10.90;99.90
12853;DHT22;6495;51.808;7.478;2023-04-24T14:15:44;10.90;99.90
12853;DHT22;6495;51.808;7.478;2023-04-24T14:18:32;10.90;99.90
12853;DHT22;6495;51.808;7.478;2023-04-24T14:21:21;10.90;99.90
12853;DHT22;6495;51.808;7.478;2023-04-24T14:24:53;10.90;99.90
12853;DHT22;6495;51.808;7.478;2023-04-24T14:36:08;10.70;99.90
12853;DHT22;6495;51.808;7.478;2023-04-24T14:38:57;10.70;99.90
12853;DHT22;6495;51.808;7.478;2023-04-24T14:41:46;10.70;99.90
12853;DHT22;6495;51.808;7.478;2023-04-24T14:44:36;10.70;99.90
12853;DHT22;6495;51.808;7.478;2023-04-24T14:47:24;10.70;99.90
12853;DHT22;6495;51.808;7.478;2023-04-24T14:50:13;10.70;99.90
12853;DHT22;6495;51.808;7.478;2023-04-24T14:53:02;10.70;99.90
12853;DHT22;6495;51.808;7.478;2023-04-24T14:55:51;10.60;99.90
12853;DHT22;6495;51.808;7.478;2023-04-24T14:58:39;10.70;99.90
12853;DHT22;6495;51.808;7.478;2023-04-24T15:01:29;10.60;99.90
12853;DHT22;6495;51.808;7.478;2023-04-24T15:04:18;10.60;99.90
12853;DHT22;6495;51.808;7.478;2023-04-24T15:07:10;10.60;99.90
12853;DHT22;6495;51.808;7.478;2023-04-24T15:09:59;10.60;99.90
12853;DHT22;6495;51.808;7.478;2023-04-24T15:12:47;10.60;99.90
12853;DHT22;6495;51.808;7.478;2023-04-24T15:15:36;10.60;99.90
12853;DHT22;6495;51.808;7.478;2023-04-24T15:18:34;10.60;99.90
12853;DHT22;6495;51.808;7.478;2023-04-24T15:21:23;10.50;99.90
12853;DHT22;6495;51.808;7.478;2023-04-24T15:24:12;10.50;99.90
12853;DHT22;6495;51.808;7.478;2023-04-24T15:27:00;10.50;99.90
12853;DHT22;6495;51.808;7.478;2023-04-24T15:29:50;10.50;99.90
12853;DHT22;6495;51.808;7.478;2023-04-24T15:32:40;10.50;99.90
12853;DHT22;6495;51.808;7.478;2023-04-24T15:35:30;10.50;99.90
12853;DHT22;6495;51.808;7.478;2023-04-24T15:38:19;10.60;99.90
12853;DHT22;6495;51.808;7.478;2023-04-24T15:41:08;10.60;99.90
12853;DHT22;6495;51.808;7.478;2023-04-24T15:43:56;10.60;99.90
12853;DHT22;6495;51.808;7.478;2023-04-24T15:46:45;10.60;99.90
12853;DHT22;6495;51.808;7.478;2023-04-24T15:49:34;10.60;99.90
12853;DHT22;6495;51.808;7.478;2023-04-24T15:52:24;10.60;99.90
12853;DHT22;6495;51.808;7.478;2023-04-24T15:55:14;10.70;99.90
12853;DHT22;6495;51.808;7.478;2023-04-24T15:58:02;10.70;99.90
12853;DHT22;6495;51.808;7.478;2023-04-24T16:00:51;10.70;99.90
12853;DHT22;6495;51.808;7.478;2023-04-24T16:03:40;10.80;99.90
12853;DHT22;6495;51.808;7.478;2023-04-24T16:06:35;10.80;99.90
12853;DHT22;6495;51.808;7.478;2023-04-24T16:09:26;10.80;99.90
12853;DHT22;6495;51.808;7.478;2023-04-24T16:12:14;10.80;99.90
12853;DHT22;6495;51.808;7.478;2023-04-24T16:15:07;10.80;99.90
12853;DHT22;6495;51.808;7.478;2023-04-24T16:18:28;10.90;99.90
12853;DHT22;6495;51.808;7.478;2023-04-24T16:21:44;10.80;99.90
12853;DHT22;6495;51.808;7.478;2023-04-24T16:24:37;10.90;99.90
12853;DHT22;6495;51.808;7.478;2023-04-24T16:27:26;11.00;99.90
12853;DHT22;6495;51.808;7.478;2023-04-24T16:30:15;11.00;99.90
12853;DHT22;6495;51.808;7.478;2023-04-24T16:33:04;11.10;99.90
12853;DHT22;6495;51.808;7.478;2023-04-24T16:35:56;11.10;99.90
12853;DHT22;6495;51.808;7.478;2023-04-24T16:38:44;11.20;99.90
12853;DHT22;6495;51.808;7.478;2023-04-24T16:41:35;11.20;99.90
12853;DHT22;6495;51.808;7.478;2023-04-24T16:44:23;11.30;99.90
12853;DHT22;6495;51.808;7.478;2023-04-24T16:47:12;11.30;99.90
12853;DHT22;6495;51.808;7.478;2023-04-24T16:50:03;11.40;99.90
12853;DHT22;6495;51.808;7.478;2023-04-24T16:52:52;11.40;99.90
12853;DHT22;6495;51.808;7.478;2023-04-24T16:55:41;11.50;99.90
12853;DHT22;6495;51.808;7.478;2023-04-24T16:58:40;11.50;99.90
12853;DHT22;6495;51.808;7.478;2023-04-24T17:01:29;11.50;99.90
12853;DHT22;6495;51.808;7.478;2023-04-24T17:04:18;11.50;99.90
12853;DHT22;6495;51.808;7.478;2023-04-24T17:07:07;11.50;99.90
12853;DHT22;6495;51.808;7.478;2023-04-24T17:09:55;11.50;99.90
12853;DHT22;6495;51.808;7.478;2023-04-24T17:12:44;11.50;99.90
12853;DHT22;6495;51.808;7.478;2023-04-24T17:15:34;11.50;99.90
12853;DHT22;6495;51.808;7.478;2023-04-24T17:18:22;11.50;99.90
12853;DHT22;6495;51.808;7.478;2023-04-24T17:21:11;11.50;99.90
12853;DHT22;6495;51.808;7.478;2023-04-24T17:24:07;11.40;99.90
12853;DHT22;6495;51.808;7.478;2023-04-24T17:26:56;11.40;99.90
12853;DHT22;6495;51.808;7.478;2023-04-24T17:30:00;11.40;99.90
12853;DHT22;6495;51.808;7.478;2023-04-24T17:32:50;11.40;99.90
12853;DHT22;6495;51.808;7.478;2023-04-24T17:35:39;11.30;99.90
12853;DHT22;6495;51.808;7.478;2023-04-24T17:38:28;11.30;99.90
12853;DHT22;6495;51.808;7.478;2023-04-24T17:41:17;11.30;99.90
12853;DHT22;6495;51.808;7.478;2023-04-24T17:44:06;11.30;99.90
12853;DHT22;6495;51.808;7.478;2023-04-24T17:46:55;11.30;99.90
12853;DHT22;6495;51.808;7.478;2023-04-24T17:49:45;11.30;99.90
12853;DHT22;6495;51.808;7.478;2023-04-24T17:52:36;11.30;99.90
12853;DHT22;6495;51.808;7.478;2023-04-24T17:55:24;11.30;99.90
12853;DHT22;6495;51.808;7.478;2023-04-24T17:58:25;11.20;99.90
12853;DHT22;6495;51.808;7.478;2023-04-24T18:01:17;11.20;99.90
12853;DHT22;6495;51.808;7.478;2023-04-24T18:04:06;11.20;99.90
12853;DHT22;6495;51.808;7.478;2023-04-24T18:07:02;11.20;99.90
12853;DHT22;6495;51.808;7.478;2023-04-24T18:09:51;11.20;99.90
12853;DHT22;6495;51.808;7.478;2023-04-24T18:12:42;11.10;99.90
12853;DHT22;6495;51.808;7.478;2023-04-24T18:15:32;11.00;99.90
12853;DHT22;6495;51.808;7.478;2023-04-24T18:18:21;11.00;99.90
12853;DHT22;6495;51.808;7.478;2023-04-24T18:21:10;11.00;99.90
12853;DHT22;6495;51.808;7.478;2023-04-24T18:24:01;10.90;99.90
12853;DHT22;6495;51.808;7.478;2023-04-24T18:26:50;10.90;99.90
12853;DHT22;6495;51.808;7.478;2023-04-24T18:29:39;10.90;99.90
12853;DHT22;6495;51.808;7.478;2023-04-24T18:32:28;10.80;99.90